sensor_id;sensor_type;location;lat;lon;timestamp;P1;durP1;ratioP1;P2;durP2;ratioP2
35969;SDS011;22448;51.298;6.430;2023-11-19T00:01:59;16.23;;;8.82;;
35969;SDS011;22448;51.298;6.430;2023-11-19T00:04:26;15.82;;;9.27;;
35969;SDS011;22448;51.298;6.430;2023-11-19T00:06:54;16.77;;;9.80;;
35969;SDS011;22448;51.298;6.430;2023-11-19T00:09:21;13.05;;;9.13;;
35969;SDS011;22448;51.298;6.430;2023-11-19T00:11:49;13.75;;;9.68;;
35969;SDS011;22448;51.298;6.430;2023-11-19T00:14:19;16.92;;;10.05;;
35969;SDS011;22448;51.298;6.430;2023-11-19T00:16:46;16.92;;;10.60;;
35969;SDS011;22448;51.298;6.430;2023-11-19T00:19:13;15.55;;;11.35;;
35969;SDS011;22448;51.298;6.430;2023-11-19T00:21:41;17.33;;;10.68;;
35969;SDS011;22448;51.298;6.430;2023-11-19T00:24:08;17.83;;;10.23;;
35969;SDS011;22448;51.298;6.430;2023-11-19T00:26:35;18.95;;;11.25;;
35969;SDS011;22448;51.298;6.430;2023-11-19T00:29:02;13.35;;;10.13;;
35969;SDS011;22448;51.298;6.430;2023-11-19T00:31:30;19.45;;;10.98;;
35969;SDS011;22448;51.298;6.430;2023-11-19T00:33:57;24.35;;;11.05;;
35969;SDS011;22448;51.298;6.430;2023-11-19T00:36:25;16.10;;;10.65;;
35969;SDS011;22448;51.298;6.430;2023-11-19T00:38:53;15.88;;;10.50;;
35969;SDS011;22448;51.298;6.430;2023-11-19T00:41:20;15.35;;;10.27;;
35969;SDS011;22448;51.298;6.430;2023-11-19T00:43:49;15.57;;;10.20;;
35969;SDS011;22448;51.298;6.430;2023-11-19T00:46:16;15.52;;;10.75;;
35969;SDS011;22448;51.298;6.430;2023-11-19T00:48:43;13.02;;;9.40;;
35969;SDS011;22448;51.298;6.430;2023-11-19T00:51:11;17.20;;;8.38;;
35969;SDS011;22448;51.298;6.430;2023-11-19T00:53:39;13.07;;;8.63;;
35969;SDS011;22448;51.298;6.430;2023-11-19T00:56:06;9.38;;;7.78;;
35969;SDS011;22448;51.298;6.430;2023-11-19T00:58:34;14.52;;;8.65;;
35969;SDS011;22448;51.298;6.430;2023-11-19T01:01:01;9.18;;;7.20;;
35969;SDS011;22448;51.298;6.430;2023-11-19T01:03:29;11.63;;;7.85;;
35969;SDS011;22448;51.298;6.430;2023-11-19T01:05:56;12.35;;;8.15;;
35969;SDS011;22448;51.298;6.430;2023-11-19T01:08:25;11.30;;;6.53;;
35969;SDS011;22448;51.298;6.430;2023-11-19T01:10:52;8.95;;;6.75;;
35969;SDS011;22448;51.298;6.430;2023-11-19T01:13:19;9.50;;;7.20;;
35969;SDS011;22448;51.298;6.430;2023-11-19T01:15:47;11.68;;;6.82;;
35969;SDS011;22448;51.298;6.430;2023-11-19T01:18:15;9.77;;;7.47;;
35969;SDS011;22448;51.298;6.430;2023-11-19T01:20:45;8.25;;;6.57;;
35969;SDS011;22448;51.298;6.430;2023-11-19T01:23:13;10.70;;;7.00;;
35969;SDS011;22448;51.298;6.430;2023-11-19T01:25:40;9.52;;;6.82;;
35969;SDS011;22448;51.298;6.430;2023-11-19T01:28:07;17.55;;;7.55;;
35969;SDS011;22448;51.298;6.430;2023-11-19T01:30:34;24.17;;;7.25;;
35969;SDS011;22448;51.298;6.430;2023-11-19T01:33:01;11.68;;;6.30;;
35969;SDS011;22448;51.298;6.430;2023-11-19T01:35:29;15.18;;;6.30;;
35969;SDS011;22448;51.298;6.430;2023-11-19T01:37:56;12.15;;;5.82;;
35969;SDS011;22448;51.298;6.430;2023-11-19T01:40:24;13.77;;;6.03;;
35969;SDS011;22448;51.298;6.430;2023-11-19T01:42:51;13.35;;;6.03;;
35969;SDS011;22448;51.298;6.430;2023-11-19T01:45:21;18.17;;;6.40;;
35969;SDS011;22448;51.298;6.430;2023-11-19T01:47:55;16.65;;;6.25;;
35969;SDS011;22448;51.298;6.430;2023-11-19T01:50:23;19.80;;;5.13;;
35969;SDS011;22448;51.298;6.430;2023-11-19T01:52:54;13.43;;;5.18;;
35969;SDS011;22448;51.298;6.430;2023-11-19T01:55:24;16.10;;;5.05;;
35969;SDS011;22448;51.298;6.430;2023-11-19T01:57:55;15.95;;;5.20;;
35969;SDS011;22448;51.298;6.430;2023-11-19T02:00:28;18.25;;;5.85;;
35969;SDS011;22448;51.298;6.430;2023-11-19T02:02:55;12.88;;;4.90;;
35969;SDS011;22448;51.298;6.430;2023-11-19T02:05:23;14.38;;;4.90;;
35969;SDS011;22448;51.298;6.430;2023-11-19T02:07:52;14.27;;;5.10;;
35969;SDS011;22448;51.298;6.430;2023-11-19T02:10:19;12.65;;;4.80;;
35969;SDS011;22448;51.298;6.430;2023-11-19T02:12:46;18.20;;;5.20;;
35969;SDS011;22448;51.298;6.430;2023-11-19T02:15:15;13.50;;;4.50;;
35969;SDS011;22448;51.298;6.430;2023-11-19T02:17:45;21.13;;;5.78;;
35969;SDS011;22448;51.298;6.430;2023-11-19T02:20:13;23.45;;;4.80;;
35969;SDS011;22448;51.298;6.430;2023-11-19T02:22:42;19.90;;;4.97;;
35969;SDS011;22448;51.298;6.430;2023-11-19T02:28:07;15.23;;;4.63;;
35969;SDS011;22448;51.298;6.430;2023-11-19T02:30:38;13.73;;;4.68;;
35969;SDS011;22448;51.298;6.430;2023-11-19T02:33:05;20.80;;;4.97;;
35969;SDS011;22448;51.298;6.430;2023-11-19T02:35:32;20.38;;;5.20;;
35969;SDS011;22448;51.298;6.430;2023-11-19T02:38:03;24.95;;;5.68;;
35969;SDS011;22448;51.298;6.430;2023-11-19T02:40:30;22.63;;;5.07;;
35969;SDS011;22448;51.298;6.430;2023-11-19T02:42:57;17.52;;;5.63;;
35969;SDS011;22448;51.298;6.430;2023-11-19T02:45:25;21.30;;;5.50;;
35969;SDS011;22448;51.298;6.430;2023-11-19T02:47:53;22.35;;;6.10;;
35969;SDS011;22448;51.298;6.430;2023-11-19T02:50:24;22.92;;;5.93;;
35969;SDS011;22448;51.298;6.430;2023-11-19T02:52:53;29.60;;;6.68;;
35969;SDS011;22448;51.298;6.430;2023-11-19T02:55:24;30.48;;;6.10;;
35969;SDS011;22448;51.298;6.430;2023-11-19T02:57:51;36.03;;;7.20;;
35969;SDS011;22448;51.298;6.430;2023-11-19T03:00:21;24.15;;;6.38;;
35969;SDS011;22448;51.298;6.430;2023-11-19T03:03:00;36.67;;;6.90;;
35969;SDS011;22448;51.298;6.430;2023-11-19T03:05:45;30.80;;;6.72;;
35969;SDS011;22448;51.298;6.430;2023-11-19T03:08:14;39.85;;;6.93;;
35969;SDS011;22448;51.298;6.430;2023-11-19T03:10:46;27.10;;;6.72;;
35969;SDS011;22448;51.298;6.430;2023-11-19T03:13:13;41.35;;;7.53;;
35969;SDS011;22448;51.298;6.430;2023-11-19T03:15:40;32.22;;;6.15;;
35969;SDS011;22448;51.298;6.430;2023-11-19T03:18:08;31.10;;;6.97;;
35969;SDS011;22448;51.298;6.430;2023-11-19T03:20:35;29.88;;;7.05;;
35969;SDS011;22448;51.298;6.430;2023-11-19T03:23:02;31.25;;;7.80;;
35969;SDS011;22448;51.298;6.430;2023-11-19T03:25:30;35.35;;;7.70;;
35969;SDS011;22448;51.298;6.430;2023-11-19T03:28:00;34.45;;;7.55;;
35969;SDS011;22448;51.298;6.430;2023-11-19T03:30:31;32.58;;;6.60;;
35969;SDS011;22448;51.298;6.430;2023-11-19T03:33:00;47.70;;;6.93;;
35969;SDS011;22448;51.298;6.430;2023-11-19T03:35:29;33.40;;;7.00;;
35969;SDS011;22448;51.298;6.430;2023-11-19T03:37:57;31.08;;;5.88;;
35969;SDS011;22448;51.298;6.430;2023-11-19T03:40:24;29.83;;;5.82;;
35969;SDS011;22448;51.298;6.430;2023-11-19T03:42:52;39.65;;;7.00;;
35969;SDS011;22448;51.298;6.430;2023-11-19T03:45:19;39.42;;;6.00;;
35969;SDS011;22448;51.298;6.430;2023-11-19T03:47:47;46.63;;;6.85;;
35969;SDS011;22448;51.298;6.430;2023-11-19T03:50:16;42.95;;;6.40;;
35969;SDS011;22448;51.298;6.430;2023-11-19T03:52:47;38.83;;;5.97;;
35969;SDS011;22448;51.298;6.430;2023-11-19T03:55:15;55.47;;;6.40;;
35969;SDS011;22448;51.298;6.430;2023-11-19T03:57:42;34.47;;;5.93;;
35969;SDS011;22448;51.298;6.430;2023-11-19T04:00:10;39.22;;;6.82;;
35969;SDS011;22448;51.298;6.430;2023-11-19T04:02:40;49.05;;;6.40;;
35969;SDS011;22448;51.298;6.430;2023-11-19T04:05:08;32.33;;;6.20;;
35969;SDS011;22448;51.298;6.430;2023-11-19T04:07:36;41.53;;;5.93;;
35969;SDS011;22448;51.298;6.430;2023-11-19T04:10:04;49.80;;;7.38;;
35969;SDS011;22448;51.298;6.430;2023-11-19T04:12:32;68.13;;;7.65;;
35969;SDS011;22448;51.298;6.430;2023-11-19T04:14:59;47.05;;;7.03;;
35969;SDS011;22448;51.298;6.430;2023-11-19T04:17:27;44.35;;;6.72;;
35969;SDS011;22448;51.298;6.430;2023-11-19T04:19:55;50.42;;;8.00;;
35969;SDS011;22448;51.298;6.430;2023-11-19T04:22:22;60.30;;;7.47;;
35969;SDS011;22448;51.298;6.430;2023-11-19T04:24:50;50.40;;;5.93;;
35969;SDS011;22448;51.298;6.430;2023-11-19T04:27:17;47.35;;;6.75;;
35969;SDS011;22448;51.298;6.430;2023-11-19T04:29:45;49.95;;;6.70;;
35969;SDS011;22448;51.298;6.430;2023-11-19T04:32:14;47.90;;;6.80;;
35969;SDS011;22448;51.298;6.430;2023-11-19T04:34:41;50.08;;;7.03;;
35969;SDS011;22448;51.298;6.430;2023-11-19T04:37:08;53.95;;;6.82;;
35969;SDS011;22448;51.298;6.430;2023-11-19T04:39:39;45.35;;;6.45;;
35969;SDS011;22448;51.298;6.430;2023-11-19T04:42:06;44.10;;;6.03;;
35969;SDS011;22448;51.298;6.430;2023-11-19T04:44:33;53.70;;;6.95;;
35969;SDS011;22448;51.298;6.430;2023-11-19T04:47:00;43.17;;;6.95;;
35969;SDS011;22448;51.298;6.430;2023-11-19T04:49:28;43.90;;;7.35;;
35969;SDS011;22448;51.298;6.430;2023-11-19T04:51:57;48.92;;;6.45;;
35969;SDS011;22448;51.298;6.430;2023-11-19T04:54:24;52.25;;;7.20;;
35969;SDS011;22448;51.298;6.430;2023-11-19T04:56:51;58.65;;;7.45;;
35969;SDS011;22448;51.298;6.430;2023-11-19T04:59:18;41.45;;;5.40;;
35969;SDS011;22448;51.298;6.430;2023-11-19T05:01:49;42.65;;;6.55;;
35969;SDS011;22448;51.298;6.430;2023-11-19T05:04:17;48.53;;;7.25;;
35969;SDS011;22448;51.298;6.430;2023-11-19T05:06:45;43.53;;;6.75;;
35969;SDS011;22448;51.298;6.430;2023-11-19T05:09:12;54.92;;;7.07;;
35969;SDS011;22448;51.298;6.430;2023-11-19T05:11:40;52.45;;;7.57;;
35969;SDS011;22448;51.298;6.430;2023-11-19T05:14:10;59.55;;;7.72;;
35969;SDS011;22448;51.298;6.430;2023-11-19T05:16:39;55.40;;;7.03;;
35969;SDS011;22448;51.298;6.430;2023-11-19T05:19:07;38.72;;;5.85;;
35969;SDS011;22448;51.298;6.430;2023-11-19T05:21:35;41.58;;;6.88;;
35969;SDS011;22448;51.298;6.430;2023-11-19T05:24:02;57.90;;;6.43;;
35969;SDS011;22448;51.298;6.430;2023-11-19T05:26:32;51.88;;;6.80;;
35969;SDS011;22448;51.298;6.430;2023-11-19T05:28:59;51.90;;;6.32;;
35969;SDS011;22448;51.298;6.430;2023-11-19T05:31:26;44.38;;;6.60;;
35969;SDS011;22448;51.298;6.430;2023-11-19T05:33:53;45.22;;;6.63;;
35969;SDS011;22448;51.298;6.430;2023-11-19T05:36:20;45.22;;;6.80;;
35969;SDS011;22448;51.298;6.430;2023-11-19T05:38:47;59.33;;;7.20;;
35969;SDS011;22448;51.298;6.430;2023-11-19T05:41:15;58.08;;;6.70;;
35969;SDS011;22448;51.298;6.430;2023-11-19T05:43:42;41.00;;;5.85;;
35969;SDS011;22448;51.298;6.430;2023-11-19T05:46:09;58.47;;;8.02;;
35969;SDS011;22448;51.298;6.430;2023-11-19T05:48:39;42.53;;;6.57;;
35969;SDS011;22448;51.298;6.430;2023-11-19T05:51:06;41.55;;;7.40;;
35969;SDS011;22448;51.298;6.430;2023-11-19T05:53:33;47.05;;;6.63;;
35969;SDS011;22448;51.298;6.430;2023-11-19T05:56:00;40.20;;;6.22;;
35969;SDS011;22448;51.298;6.430;2023-11-19T05:58:30;51.70;;;6.80;;
35969;SDS011;22448;51.298;6.430;2023-11-19T06:00:59;51.47;;;7.15;;
35969;SDS011;22448;51.298;6.430;2023-11-19T06:03:29;53.50;;;7.38;;
35969;SDS011;22448;51.298;6.430;2023-11-19T06:05:57;38.40;;;6.07;;
35969;SDS011;22448;51.298;6.430;2023-11-19T06:08:24;45.50;;;7.03;;
35969;SDS011;22448;51.298;6.430;2023-11-19T06:10:53;45.13;;;6.50;;
35969;SDS011;22448;51.298;6.430;2023-11-19T06:13:20;39.25;;;5.85;;
35969;SDS011;22448;51.298;6.430;2023-11-19T06:15:50;46.85;;;7.20;;
35969;SDS011;22448;51.298;6.430;2023-11-19T06:18:18;52.13;;;6.88;;
35969;SDS011;22448;51.298;6.430;2023-11-19T06:20:47;51.35;;;7.40;;
35969;SDS011;22448;51.298;6.430;2023-11-19T06:23:14;52.45;;;6.40;;
35969;SDS011;22448;51.298;6.430;2023-11-19T06:25:41;33.17;;;5.90;;
35969;SDS011;22448;51.298;6.430;2023-11-19T06:28:08;46.95;;;7.32;;
35969;SDS011;22448;51.298;6.430;2023-11-19T06:30:36;47.10;;;6.82;;
35969;SDS011;22448;51.298;6.430;2023-11-19T06:33:03;42.55;;;5.78;;
35969;SDS011;22448;51.298;6.430;2023-11-19T06:35:30;46.75;;;6.72;;
35969;SDS011;22448;51.298;6.430;2023-11-19T06:38:02;79.97;;;8.03;;
35969;SDS011;22448;51.298;6.430;2023-11-19T06:40:31;54.05;;;7.20;;
35969;SDS011;22448;51.298;6.430;2023-11-19T06:43:02;48.08;;;6.40;;
35969;SDS011;22448;51.298;6.430;2023-11-19T06:45:30;45.40;;;6.22;;
35969;SDS011;22448;51.298;6.430;2023-11-19T06:47:57;50.88;;;7.50;;
35969;SDS011;22448;51.298;6.430;2023-11-19T06:50:27;40.63;;;5.25;;
35969;SDS011;22448;51.298;6.430;2023-11-19T06:52:55;59.28;;;7.90;;
35969;SDS011;22448;51.298;6.430;2023-11-19T06:55:22;39.13;;;5.45;;
35969;SDS011;22448;51.298;6.430;2023-11-19T06:57:49;43.38;;;6.82;;
35969;SDS011;22448;51.298;6.430;2023-11-19T07:00:16;51.10;;;7.22;;
35969;SDS011;22448;51.298;6.430;2023-11-19T07:02:44;41.50;;;6.30;;
35969;SDS011;22448;51.298;6.430;2023-11-19T07:05:12;51.35;;;7.30;;
35969;SDS011;22448;51.298;6.430;2023-11-19T07:07:39;48.75;;;7.03;;
35969;SDS011;22448;51.298;6.430;2023-11-19T07:10:07;58.25;;;8.48;;
35969;SDS011;22448;51.298;6.430;2023-11-19T07:12:36;43.25;;;5.93;;
35969;SDS011;22448;51.298;6.430;2023-11-19T07:15:03;49.60;;;6.68;;
35969;SDS011;22448;51.298;6.430;2023-11-19T07:17:31;53.40;;;7.70;;
35969;SDS011;22448;51.298;6.430;2023-11-19T07:19:59;39.35;;;5.93;;
35969;SDS011;22448;51.298;6.430;2023-11-19T07:22:26;46.33;;;6.57;;
35969;SDS011;22448;51.298;6.430;2023-11-19T07:24:53;46.10;;;6.18;;
35969;SDS011;22448;51.298;6.430;2023-11-19T07:27:20;46.83;;;6.55;;
35969;SDS011;22448;51.298;6.430;2023-11-19T07:29:47;39.92;;;6.22;;
35969;SDS011;22448;51.298;6.430;2023-11-19T07:32:14;41.83;;;7.45;;
35969;SDS011;22448;51.298;6.430;2023-11-19T07:34:42;44.95;;;7.13;;
35969;SDS011;22448;51.298;6.430;2023-11-19T07:37:09;45.35;;;6.65;;
35969;SDS011;22448;51.298;6.430;2023-11-19T07:39:36;50.65;;;6.82;;
35969;SDS011;22448;51.298;6.430;2023-11-19T07:42:04;50.33;;;7.07;;
35969;SDS011;22448;51.298;6.430;2023-11-19T07:44:31;45.75;;;7.10;;
35969;SDS011;22448;51.298;6.430;2023-11-19T07:46:58;50.28;;;8.30;;
35969;SDS011;22448;51.298;6.430;2023-11-19T07:49:26;66.97;;;8.73;;
35969;SDS011;22448;51.298;6.430;2023-11-19T07:51:53;54.22;;;8.55;;
35969;SDS011;22448;51.298;6.430;2023-11-19T07:54:20;59.53;;;8.70;;
35969;SDS011;22448;51.298;6.430;2023-11-19T07:56:47;57.80;;;8.38;;
35969;SDS011;22448;51.298;6.430;2023-11-19T07:59:16;51.22;;;8.63;;
35969;SDS011;22448;51.298;6.430;2023-11-19T08:01:43;58.35;;;9.00;;
35969;SDS011;22448;51.298;6.430;2023-11-19T08:04:10;60.60;;;8.82;;
35969;SDS011;22448;51.298;6.430;2023-11-19T08:06:38;51.65;;;8.38;;
35969;SDS011;22448;51.298;6.430;2023-11-19T08:09:05;58.38;;;9.95;;
35969;SDS011;22448;51.298;6.430;2023-11-19T08:11:33;58.00;;;9.30;;
35969;SDS011;22448;51.298;6.430;2023-11-19T08:14:00;65.97;;;13.40;;
35969;SDS011;22448;51.298;6.430;2023-11-19T08:16:27;122.50;;;30.58;;
35969;SDS011;22448;51.298;6.430;2023-11-19T08:18:54;75.78;;;16.33;;
35969;SDS011;22448;51.298;6.430;2023-11-19T08:21:21;83.50;;;18.25;;
35969;SDS011;22448;51.298;6.430;2023-11-19T08:23:49;60.72;;;15.50;;
35969;SDS011;22448;51.298;6.430;2023-11-19T08:26:16;43.88;;;8.93;;
35969;SDS011;22448;51.298;6.430;2023-11-19T08:28:47;48.15;;;10.85;;
35969;SDS011;22448;51.298;6.430;2023-11-19T08:31:14;51.53;;;9.40;;
35969;SDS011;22448;51.298;6.430;2023-11-19T08:33:42;68.63;;;10.40;;
35969;SDS011;22448;51.298;6.430;2023-11-19T08:36:14;68.55;;;12.40;;
35969;SDS011;22448;51.298;6.430;2023-11-19T08:38:42;61.83;;;14.57;;
35969;SDS011;22448;51.298;6.430;2023-11-19T08:41:09;67.10;;;13.55;;
35969;SDS011;22448;51.298;6.430;2023-11-19T08:43:36;205.25;;;94.65;;
35969;SDS011;22448;51.298;6.430;2023-11-19T08:46:09;69.65;;;20.83;;
35969;SDS011;22448;51.298;6.430;2023-11-19T08:51:04;51.80;;;7.82;;
35969;SDS011;22448;51.298;6.430;2023-11-19T08:53:32;40.97;;;6.72;;
35969;SDS011;22448;51.298;6.430;2023-11-19T08:55:59;46.45;;;8.43;;
35969;SDS011;22448;51.298;6.430;2023-11-19T08:58:30;52.63;;;7.68;;
35969;SDS011;22448;51.298;6.430;2023-11-19T09:00:57;47.92;;;7.45;;
35969;SDS011;22448;51.298;6.430;2023-11-19T09:03:24;51.38;;;10.27;;
35969;SDS011;22448;51.298;6.430;2023-11-19T09:05:57;58.30;;;9.98;;
35969;SDS011;22448;51.298;6.430;2023-11-19T09:08:24;44.05;;;7.10;;
35969;SDS011;22448;51.298;6.430;2023-11-19T09:10:51;51.92;;;8.80;;
35969;SDS011;22448;51.298;6.430;2023-11-19T09:13:18;56.88;;;9.02;;
35969;SDS011;22448;51.298;6.430;2023-11-19T09:15:45;40.10;;;7.65;;
35969;SDS011;22448;51.298;6.430;2023-11-19T09:18:12;54.33;;;9.00;;
35969;SDS011;22448;51.298;6.430;2023-11-19T09:20:40;54.13;;;8.35;;
35969;SDS011;22448;51.298;6.430;2023-11-19T09:23:07;57.67;;;8.07;;
35969;SDS011;22448;51.298;6.430;2023-11-19T09:25:35;55.72;;;7.57;;
35969;SDS011;22448;51.298;6.430;2023-11-19T09:28:05;57.47;;;7.75;;
35969;SDS011;22448;51.298;6.430;2023-11-19T09:30:32;44.47;;;6.53;;
35969;SDS011;22448;51.298;6.430;2023-11-19T09:33:00;48.17;;;7.20;;
35969;SDS011;22448;51.298;6.430;2023-11-19T09:35:28;50.63;;;7.03;;
35969;SDS011;22448;51.298;6.430;2023-11-19T09:37:55;47.33;;;8.20;;
35969;SDS011;22448;51.298;6.430;2023-11-19T09:40:22;45.70;;;7.75;;
35969;SDS011;22448;51.298;6.430;2023-11-19T09:42:49;36.05;;;6.68;;
35969;SDS011;22448;51.298;6.430;2023-11-19T09:45:17;46.40;;;7.38;;
35969;SDS011;22448;51.298;6.430;2023-11-19T09:47:48;51.60;;;7.50;;
35969;SDS011;22448;51.298;6.430;2023-11-19T09:50:19;43.05;;;7.93;;
35969;SDS011;22448;51.298;6.430;2023-11-19T09:52:47;48.28;;;8.45;;
35969;SDS011;22448;51.298;6.430;2023-11-19T09:55:14;52.70;;;8.63;;
35969;SDS011;22448;51.298;6.430;2023-11-19T09:57:41;50.40;;;7.93;;
35969;SDS011;22448;51.298;6.430;2023-11-19T10:00:10;50.65;;;7.13;;
35969;SDS011;22448;51.298;6.430;2023-11-19T10:02:42;47.70;;;7.43;;
35969;SDS011;22448;51.298;6.430;2023-11-19T10:05:13;40.88;;;6.65;;
35969;SDS011;22448;51.298;6.430;2023-11-19T10:07:42;46.53;;;6.47;;
35969;SDS011;22448;51.298;6.430;2023-11-19T10:10:09;52.90;;;7.88;;
35969;SDS011;22448;51.298;6.430;2023-11-19T10:12:40;47.08;;;6.90;;
35969;SDS011;22448;51.298;6.430;2023-11-19T10:15:24;49.80;;;7.15;;
35969;SDS011;22448;51.298;6.430;2023-11-19T10:17:57;43.22;;;7.47;;
35969;SDS011;22448;51.298;6.430;2023-11-19T10:20:24;39.83;;;7.10;;
35969;SDS011;22448;51.298;6.430;2023-11-19T10:22:52;42.67;;;7.35;;
35969;SDS011;22448;51.298;6.430;2023-11-19T10:25:22;47.15;;;7.50;;
35969;SDS011;22448;51.298;6.430;2023-11-19T10:27:51;42.28;;;7.07;;
35969;SDS011;22448;51.298;6.430;2023-11-19T10:30:25;36.15;;;6.82;;
35969;SDS011;22448;51.298;6.430;2023-11-19T10:33:13;39.90;;;6.95;;
35969;SDS011;22448;51.298;6.430;2023-11-19T10:35:54;37.78;;;6.13;;
35969;SDS011;22448;51.298;6.430;2023-11-19T10:38:28;40.85;;;6.32;;
35969;SDS011;22448;51.298;6.430;2023-11-19T10:40:55;44.92;;;6.60;;
35969;SDS011;22448;51.298;6.430;2023-11-19T10:43:22;46.25;;;7.60;;
35969;SDS011;22448;51.298;6.430;2023-11-19T10:45:50;43.38;;;7.97;;
35969;SDS011;22448;51.298;6.430;2023-11-19T10:48:18;36.83;;;7.40;;
35969;SDS011;22448;51.298;6.430;2023-11-19T10:50:46;40.95;;;7.68;;
35969;SDS011;22448;51.298;6.430;2023-11-19T10:53:17;45.08;;;8.43;;
35969;SDS011;22448;51.298;6.430;2023-11-19T10:55:46;43.17;;;10.85;;
35969;SDS011;22448;51.298;6.430;2023-11-19T10:58:15;46.08;;;10.18;;
35969;SDS011;22448;51.298;6.430;2023-11-19T11:00:45;39.35;;;7.95;;
35969;SDS011;22448;51.298;6.430;2023-11-19T11:04:30;43.70;;;9.15;;
35969;SDS011;22448;51.298;6.430;2023-11-19T11:08:03;35.63;;;5.53;;
35969;SDS011;22448;51.298;6.430;2023-11-19T11:11:36;35.90;;;8.63;;
35969;SDS011;22448;51.298;6.430;2023-11-19T11:14:43;29.83;;;7.38;;
35969;SDS011;22448;51.298;6.430;2023-11-19T11:17:23;43.70;;;8.73;;
35969;SDS011;22448;51.298;6.430;2023-11-19T11:19:55;34.50;;;7.30;;
35969;SDS011;22448;51.298;6.430;2023-11-19T11:22:22;52.70;;;9.25;;
35969;SDS011;22448;51.298;6.430;2023-11-19T11:25:02;40.72;;;9.85;;
35969;SDS011;22448;51.298;6.430;2023-11-19T11:27:48;43.22;;;7.22;;
35969;SDS011;22448;51.298;6.430;2023-11-19T11:30:45;39.80;;;8.68;;
35969;SDS011;22448;51.298;6.430;2023-11-19T11:36:24;40.90;;;9.50;;
35969;SDS011;22448;51.298;6.430;2023-11-19T11:38:52;39.42;;;7.50;;
35969;SDS011;22448;51.298;6.430;2023-11-19T11:41:27;34.55;;;6.30;;
35969;SDS011;22448;51.298;6.430;2023-11-19T11:43:56;39.45;;;7.40;;
35969;SDS011;22448;51.298;6.430;2023-11-19T11:49:01;42.13;;;6.63;;
35969;SDS011;22448;51.298;6.430;2023-11-19T11:57:10;32.13;;;7.90;;
35969;SDS011;22448;51.298;6.430;2023-11-19T11:59:47;44.83;;;8.38;;
35969;SDS011;22448;51.298;6.430;2023-11-19T12:02:15;38.20;;;7.15;;
35969;SDS011;22448;51.298;6.430;2023-11-19T12:04:51;43.42;;;8.00;;
35969;SDS011;22448;51.298;6.430;2023-11-19T12:09:51;38.35;;;6.13;;
35969;SDS011;22448;51.298;6.430;2023-11-19T12:12:42;31.65;;;6.28;;
35969;SDS011;22448;51.298;6.430;2023-11-19T12:15:10;38.95;;;6.50;;
35969;SDS011;22448;51.298;6.430;2023-11-19T12:17:40;42.53;;;7.68;;
35969;SDS011;22448;51.298;6.430;2023-11-19T12:20:11;37.85;;;7.53;;
35969;SDS011;22448;51.298;6.430;2023-11-19T12:22:39;32.20;;;6.95;;
35969;SDS011;22448;51.298;6.430;2023-11-19T12:25:07;35.80;;;6.10;;
35969;SDS011;22448;51.298;6.430;2023-11-19T12:27:39;38.80;;;6.40;;
35969;SDS011;22448;51.298;6.430;2023-11-19T12:32:44;34.15;;;6.53;;
35969;SDS011;22448;51.298;6.430;2023-11-19T12:35:12;35.70;;;6.55;;
35969;SDS011;22448;51.298;6.430;2023-11-19T12:37:40;34.33;;;5.88;;
35969;SDS011;22448;51.298;6.430;2023-11-19T12:40:15;38.65;;;6.78;;
35969;SDS011;22448;51.298;6.430;2023-11-19T12:42:44;42.00;;;5.95;;
35969;SDS011;22448;51.298;6.430;2023-11-19T12:45:14;44.88;;;6.70;;
35969;SDS011;22448;51.298;6.430;2023-11-19T12:47:45;37.90;;;5.90;;
35969;SDS011;22448;51.298;6.430;2023-11-19T12:50:16;36.42;;;5.85;;
35969;SDS011;22448;51.298;6.430;2023-11-19T12:52:55;32.70;;;5.65;;
35969;SDS011;22448;51.298;6.430;2023-11-19T12:55:26;39.45;;;6.13;;
35969;SDS011;22448;51.298;6.430;2023-11-19T12:57:56;37.63;;;7.22;;
35969;SDS011;22448;51.298;6.430;2023-11-19T13:00:25;49.45;;;6.97;;
35969;SDS011;22448;51.298;6.430;2023-11-19T13:02:54;48.85;;;7.60;;
35969;SDS011;22448;51.298;6.430;2023-11-19T13:07:59;43.42;;;6.05;;
35969;SDS011;22448;51.298;6.430;2023-11-19T13:10:32;42.30;;;6.93;;
35969;SDS011;22448;51.298;6.430;2023-11-19T13:13:01;32.67;;;6.40;;
35969;SDS011;22448;51.298;6.430;2023-11-19T13:15:33;24.48;;;4.60;;
35969;SDS011;22448;51.298;6.430;2023-11-19T13:18:01;41.42;;;6.80;;
35969;SDS011;22448;51.298;6.430;2023-11-19T13:20:29;39.00;;;9.82;;
35969;SDS011;22448;51.298;6.430;2023-11-19T13:22:57;30.08;;;5.53;;
35969;SDS011;22448;51.298;6.430;2023-11-19T13:25:28;38.05;;;6.13;;
35969;SDS011;22448;51.298;6.430;2023-11-19T13:27:56;37.63;;;5.82;;
35969;SDS011;22448;51.298;6.430;2023-11-19T13:30:25;33.10;;;6.00;;
35969;SDS011;22448;51.298;6.430;2023-11-19T13:32:53;39.95;;;7.05;;
35969;SDS011;22448;51.298;6.430;2023-11-19T13:35:23;32.08;;;6.90;;
35969;SDS011;22448;51.298;6.430;2023-11-19T13:37:51;34.53;;;8.02;;
35969;SDS011;22448;51.298;6.430;2023-11-19T13:40:18;28.33;;;6.75;;
35969;SDS011;22448;51.298;6.430;2023-11-19T13:42:46;32.45;;;6.15;;
35969;SDS011;22448;51.298;6.430;2023-11-19T13:45:14;41.92;;;6.32;;
35969;SDS011;22448;51.298;6.430;2023-11-19T13:47:42;32.35;;;6.28;;
35969;SDS011;22448;51.298;6.430;2023-11-19T13:50:15;32.75;;;5.35;;
35969;SDS011;22448;51.298;6.430;2023-11-19T13:52:44;38.17;;;6.53;;
35969;SDS011;22448;51.298;6.430;2023-11-19T13:55:13;40.45;;;6.10;;
35969;SDS011;22448;51.298;6.430;2023-11-19T13:57:41;41.00;;;7.22;;
35969;SDS011;22448;51.298;6.430;2023-11-19T14:00:12;39.63;;;6.28;;
35969;SDS011;22448;51.298;6.430;2023-11-19T14:02:40;30.15;;;6.00;;
35969;SDS011;22448;51.298;6.430;2023-11-19T14:05:09;37.22;;;6.25;;
35969;SDS011;22448;51.298;6.430;2023-11-19T14:07:37;34.42;;;5.63;;
35969;SDS011;22448;51.298;6.430;2023-11-19T14:10:05;40.35;;;6.72;;
35969;SDS011;22448;51.298;6.430;2023-11-19T14:12:33;27.60;;;5.18;;
35969;SDS011;22448;51.298;6.430;2023-11-19T14:15:02;34.80;;;6.05;;
35969;SDS011;22448;51.298;6.430;2023-11-19T14:17:30;39.20;;;7.25;;
35969;SDS011;22448;51.298;6.430;2023-11-19T14:19:58;39.72;;;5.75;;
35969;SDS011;22448;51.298;6.430;2023-11-19T14:22:26;40.83;;;5.65;;
35969;SDS011;22448;51.298;6.430;2023-11-19T14:24:54;41.35;;;6.40;;
35969;SDS011;22448;51.298;6.430;2023-11-19T14:27:22;39.05;;;6.20;;
35969;SDS011;22448;51.298;6.430;2023-11-19T14:29:49;34.00;;;5.97;;
35969;SDS011;22448;51.298;6.430;2023-11-19T14:32:17;34.67;;;5.35;;
35969;SDS011;22448;51.298;6.430;2023-11-19T14:34:45;37.78;;;6.05;;
35969;SDS011;22448;51.298;6.430;2023-11-19T14:37:12;51.97;;;6.78;;
35969;SDS011;22448;51.298;6.430;2023-11-19T14:39:39;38.95;;;6.00;;
35969;SDS011;22448;51.298;6.430;2023-11-19T14:42:07;40.85;;;6.22;;
35969;SDS011;22448;51.298;6.430;2023-11-19T14:44:35;37.55;;;6.40;;
35969;SDS011;22448;51.298;6.430;2023-11-19T14:47:03;38.03;;;5.13;;
35969;SDS011;22448;51.298;6.430;2023-11-19T14:49:30;41.42;;;7.28;;
35969;SDS011;22448;51.298;6.430;2023-11-19T14:51:58;49.05;;;8.52;;
35969;SDS011;22448;51.298;6.430;2023-11-19T14:54:43;34.78;;;5.85;;
35969;SDS011;22448;51.298;6.430;2023-11-19T14:57:11;44.67;;;6.57;;
35969;SDS011;22448;51.298;6.430;2023-11-19T14:59:40;39.17;;;6.80;;
35969;SDS011;22448;51.298;6.430;2023-11-19T15:02:07;40.70;;;6.40;;
35969;SDS011;22448;51.298;6.430;2023-11-19T15:04:34;50.17;;;9.38;;
35969;SDS011;22448;51.298;6.430;2023-11-19T15:07:02;48.83;;;11.05;;
35969;SDS011;22448;51.298;6.430;2023-11-19T15:09:31;50.58;;;12.45;;
35969;SDS011;22448;51.298;6.430;2023-11-19T15:11:59;90.30;;;22.88;;